Time;durP1;ratioP1;P1;durP2;ratioP2;P2;SDS_P1;SDS_P2;PMS_P1;PMS_P2;Temp;Humidity;BMP_temperature;BMP_pressure;BME280_temperature;BME280_humidity;BME280_pressure;Samples;Min_cycle;Max_cycle;Signal;HPM_P1;HPM_P2
2022/10/29 00:00:01;;;;;;;0.50;0.50;;;20.70;73.00;;;;;;5006409;28;20522;-21
2022/10/29 00:02:26;;;;;;;0.55;0.55;;;20.70;73.00;;;;;;5007629;28;20046;-22
2022/10/29 00:04:52;;;;;;;0.80;0.65;;;20.70;73.80;;;;;;4993617;28;20535;-21
2022/10/29 00:07:17;;;;;;;0.65;0.60;;;20.70;72.70;;;;;;4992706;28;20049;-30
2022/10/29 00:09:43;;;;;;;0.80;0.60;;;20.70;73.00;;;;;;4995111;28;20046;-23
2022/10/29 00:12:09;;;;;;;0.50;0.50;;;20.70;72.90;;;;;;4997496;28;20038;-22
2022/10/29 00:14:34;;;;;;;0.85;0.50;;;20.60;73.10;;;;;;5012556;28;21176;-24
2022/10/29 00:17:00;;;;;;;0.40;0.40;;;20.60;73.00;;;;;;5005405;28;20108;-21
2022/10/29 00:19:26;;;;;;;0.55;0.50;;;20.60;72.90;;;;;;5017175;28;20099;-22
2022/10/29 00:21:52;;;;;;;2.25;0.70;;;20.70;73.10;;;;;;5013662;28;20038;-21
2022/10/29 00:24:17;;;;;;;1.30;1.10;;;20.60;73.10;;;;;;5017031;28;20056;-22
2022/10/29 00:26:43;;;;;;;0.70;0.70;;;20.70;72.90;;;;;;5014630;28;20539;-21
2022/10/29 00:29:08;;;;;;;1.63;0.80;;;20.70;72.90;;;;;;5008616;28;20309;-26
2022/10/29 00:31:34;;;;;;;1.08;0.90;;;20.70;72.90;;;;;;5007514;28;20046;-22
2022/10/29 00:34:00;;;;;;;0.90;0.75;;;20.70;73.00;;;;;;4992549;28;20075;-23
2022/10/29 00:36:27;;;;;;;0.70;0.70;;;20.60;73.20;;;;;;4994934;28;20050;-21
2022/10/29 00:38:52;;;;;;;1.00;0.90;;;20.60;73.00;;;;;;4992894;28;20496;-14
2022/10/29 00:41:27;;;;;;;0.80;0.80;;;20.60;73.10;;;;;;5010578;28;20054;-12
2022/10/29 00:44:21;;;;;;;1.02;0.80;;;20.60;73.10;;;;;;4995272;28;20042;-12
2022/10/29 00:46:51;;;;;;;;;;;20.60;73.10;;;;;;5000578;28;20522;-12
2022/10/29 00:49:17;;;;;;;0.80;0.70;;;20.60;73.20;;;;;;4989478;28;19944;-12
2022/10/29 00:51:42;;;;;;;1.55;1.33;;;20.60;73.30;;;;;;4991999;28;20124;-13
2022/10/29 00:54:11;;;;;;;1.40;1.30;;;20.60;73.40;;;;;;5000880;28;20050;-12
2022/10/29 00:56:58;;;;;;;1.17;0.77;;;20.60;73.30;;;;;;5013534;28;20112;-13
2022/10/29 00:59:23;;;;;;;1.00;0.90;;;20.60;73.20;;;;;;5012775;28;20426;-13
2022/10/29 01:01:49;;;;;;;2.85;1.25;;;20.60;73.20;;;;;;5011113;28;20483;-12
2022/10/29 01:04:16;;;;;;;1.42;1.33;;;20.60;73.10;;;;;;5014469;28;20494;-13
2022/10/29 01:06:42;;;;;;;1.30;1.10;;;20.70;73.00;;;;;;5011377;28;20038;-13
2022/10/29 01:09:08;;;;;;;1.73;1.52;;;20.70;73.80;;;;;;5010480;28;20033;-12
2022/10/29 01:11:45;;;;;;;1.50;1.40;;;20.70;73.50;;;;;;5015386;28;20402;-13
2022/10/29 01:14:36;;;;;;;2.10;1.60;;;20.60;73.10;;;;;;5009605;28;20046;-13
2022/10/29 01:17:33;;;;;;;2.20;2.00;;;20.60;73.10;;;;;;5009766;28;20049;-13
2022/10/29 01:20:13;;;;;;;2.00;1.77;;;20.70;73.20;;;;;;5018626;28;20050;-13
2022/10/29 01:22:43;;;;;;;3.03;2.33;;;20.70;73.30;;;;;;5016701;28;20049;-13
2022/10/29 01:25:26;;;;;;;2.67;2.35;;;20.60;73.40;;;;;;5014169;28;20453;-13
2022/10/29 01:28:16;;;;;;;2.60;2.20;;;20.60;73.70;;;;;;5013677;28;20041;-16
2022/10/29 01:31:00;;;;;;;2.60;1.98;;;20.60;73.80;;;;;;5017624;28;20045;-13
2022/10/29 01:34:22;;;;;;;2.13;1.93;;;20.60;73.80;;;;;;5015237;28;20052;-23
2022/10/29 01:37:00;;;;;;;2.08;1.88;;;20.60;73.50;;;;;;5027446;28;20058;-13
2022/10/29 01:39:52;;;;;;;2.50;2.00;;;20.60;74.20;;;;;;5015101;28;20050;-13
2022/10/29 01:42:28;;;;;;;3.42;2.28;;;20.60;73.80;;;;;;5011340;28;20042;-12
2022/10/29 01:45:16;;;;;;;2.30;1.75;;;20.60;73.60;;;;;;5011662;28;20065;-17
2022/10/29 01:47:44;;;;;;;2.22;2.03;;;20.60;73.30;;;;;;5020063;28;20522;-12
2022/10/29 01:50:12;;;;;;;2.53;2.25;;;20.60;73.70;;;;;;5029094;28;20049;-14
2022/10/29 01:52:37;;;;;;;2.70;1.92;;;20.60;74.20;;;;;;5031883;28;20057;-13
2022/10/29 01:55:03;;;;;;;2.75;2.00;;;20.60;73.30;;;;;;5029406;28;20041;-14
2022/10/29 01:57:33;;;;;;;2.22;2.00;;;20.60;73.50;;;;;;5013919;28;20617;-14
2022/10/29 02:00:07;;;;;;;2.58;1.80;;;20.60;73.80;;;;;;5004337;28;20042;-13
2022/10/29 02:03:11;;;;;;;2.67;2.10;;;20.60;73.40;;;;;;5022785;28;20046;-13
2022/10/29 02:05:56;;;;;;;3.85;2.40;;;20.60;73.70;;;;;;5012904;28;20054;-13
2022/10/29 02:08:28;;;;;;;2.28;2.08;;;20.60;73.80;;;;;;5003263;28;20611;-13
2022/10/29 02:11:20;;;;;;;2.67;1.98;;;20.60;74.20;;;;;;5029609;28;20043;-14
2022/10/29 02:13:53;;;;;;;2.10;1.90;;;20.60;74.10;;;;;;5001737;28;20456;-13
2022/10/29 02:16:18;;;;;;;2.17;1.93;;;20.60;73.90;;;;;;5025472;28;20048;-13
2022/10/29 02:18:47;;;;;;;3.22;1.85;;;20.60;74.00;;;;;;5032825;28;20120;-13
2022/10/29 02:21:16;;;;;;;2.42;1.63;;;20.60;73.70;;;;;;5002045;28;20526;-13
2022/10/29 02:23:42;;;;;;;1.80;1.60;;;20.60;73.50;;;;;;4995978;28;20054;-13
2022/10/29 02:26:08;;;;;;;1.92;1.73;;;20.60;73.40;;;;;;5017398;28;20438;-13
2022/10/29 02:28:33;;;;;;;2.17;1.65;;;20.60;73.40;;;;;;5017115;28;20125;-13
2022/10/29 02:30:59;;;;;;;1.90;1.80;;;20.60;73.60;;;;;;5016961;28;20045;-13
2022/10/29 02:33:24;;;;;;;2.40;2.20;;;20.60;73.50;;;;;;5002553;28;20145;-12
2022/10/29 02:35:50;;;;;;;2.15;1.80;;;20.60;73.60;;;;;;4992091;28;20152;-13
2022/10/29 02:38:15;;;;;;;1.67;1.58;;;20.60;73.40;;;;;;5006038;28;20092;-13
2022/10/29 02:40:41;;;;;;;1.63;1.52;;;20.60;73.50;;;;;;5010602;28;20403;-23
2022/10/29 02:43:06;;;;;;;2.60;1.92;;;20.60;73.40;;;;;;4997049;28;20137;-12
2022/10/29 02:45:32;;;;;;;2.05;1.80;;;20.60;73.10;;;;;;4992055;28;20046;-13
2022/10/29 02:47:58;;;;;;;2.80;2.30;;;20.60;73.60;;;;;;4992388;28;20038;-13
2022/10/29 02:50:23;;;;;;;2.08;1.85;;;20.60;73.70;;;;;;4994604;28;20042;-14
2022/10/29 02:52:49;;;;;;;4.57;2.80;;;20.60;73.50;;;;;;4993273;28;20568;-13
2022/10/29 02:55:14;;;;;;;2.60;2.40;;;20.60;73.80;;;;;;4996558;28;20043;-13
2022/10/29 02:57:43;;;;;;;3.30;2.33;;;20.60;73.60;;;;;;4999903;28;20402;-13
2022/10/29 03:00:09;;;;;;;3.33;2.60;;;20.60;73.60;;;;;;4993510;28;20045;-13
2022/10/29 03:02:35;;;;;;;3.47;2.75;;;20.60;73.40;;;;;;4990234;28;20054;-13
2022/10/29 03:05:00;;;;;;;4.88;3.05;;;20.60;73.80;;;;;;4994041;28;20046;-13
2022/10/29 03:07:26;;;;;;;3.42;2.60;;;20.60;74.30;;;;;;5001552;28;20137;-13
2022/10/29 03:09:51;;;;;;;4.22;2.70;;;20.60;73.50;;;;;;5001546;28;20495;-20
2022/10/29 03:12:17;;;;;;;2.97;2.38;;;20.60;73.40;;;;;;4997388;28;20042;-13
2022/10/29 03:14:42;;;;;;;3.20;2.85;;;20.60;73.30;;;;;;4997289;28;20050;-13
2022/10/29 03:17:08;;;;;;;4.22;2.63;;;20.60;73.70;;;;;;4993340;28;20127;-21
2022/10/29 03:19:34;;;;;;;3.28;2.95;;;20.60;73.40;;;;;;4995447;28;20046;-13
2022/10/29 03:21:59;;;;;;;3.67;2.85;;;20.60;73.30;;;;;;4996120;28;20053;-12
2022/10/29 03:24:25;;;;;;;4.32;2.92;;;20.60;73.40;;;;;;4993521;28;20044;-12
2022/10/29 03:26:50;;;;;;;5.18;3.35;;;20.60;73.40;;;;;;4994524;28;20506;-13
2022/10/29 03:29:16;;;;;;;4.32;2.97;;;20.50;73.60;;;;;;4995094;28;20038;-13
2022/10/29 03:31:41;;;;;;;2.75;2.13;;;20.50;73.50;;;;;;5013893;28;20038;-13
2022/10/29 03:34:07;;;;;;;2.95;2.58;;;20.50;73.60;;;;;;5014892;28;20042;-12
2022/10/29 03:36:32;;;;;;;4.20;3.17;;;20.50;73.70;;;;;;4995467;28;20287;-19
2022/10/29 03:38:58;;;;;;;3.80;3.10;;;20.50;73.60;;;;;;5010477;28;20041;-12
2022/10/29 03:41:24;;;;;;;3.97;2.92;;;20.60;73.40;;;;;;5016552;28;20506;-13
2022/10/29 03:43:49;;;;;;;6.07;3.55;;;20.60;73.50;;;;;;5010317;28;20069;-13
2022/10/29 03:46:15;;;;;;;5.15;3.45;;;20.60;73.50;;;;;;5006832;28;20406;-12
2022/10/29 03:48:40;;;;;;;6.13;4.05;;;20.60;73.10;;;;;;5011405;28;20057;-14
2022/10/29 03:51:06;;;;;;;7.43;3.88;;;20.60;73.50;;;;;;5012898;28;20047;-12
2022/10/29 03:53:32;;;;;;;5.57;4.28;;;20.60;73.80;;;;;;5004072;28;20466;-13
2022/10/29 03:55:58;;;;;;;7.90;4.65;;;20.60;73.70;;;;;;4999086;28;20037;-13
2022/10/29 03:58:24;;;;;;;8.20;4.80;;;20.50;73.80;;;;;;4991667;28;20438;-13
2022/10/29 04:00:57;;;;;;;8.23;4.80;;;20.60;73.60;;;;;;4995746;28;20049;-14
2022/10/29 04:03:23;;;;;;;7.45;4.65;;;20.60;73.80;;;;;;4997151;28;20411;-13
2022/10/29 04:05:48;;;;;;;5.82;3.85;;;20.50;73.50;;;;;;5009601;28;20791;-13
2022/10/29 04:08:14;;;;;;;7.85;4.80;;;20.60;73.40;;;;;;5004121;28;20330;-12
2022/10/29 04:10:44;;;;;;;8.68;4.38;;;20.50;73.90;;;;;;4995966;28;20057;-12
2022/10/29 04:13:09;;;;;;;6.68;4.07;;;20.50;73.40;;;;;;4992281;28;20061;-23
2022/10/29 04:15:35;;;;;;;5.72;4.40;;;20.50;73.50;;;;;;4993183;28;20761;-13
2022/10/29 04:18:00;;;;;;;6.30;4.90;;;20.60;73.60;;;;;;4998881;28;20494;-13
2022/10/29 04:20:26;;;;;;;8.85;5.57;;;20.50;73.70;;;;;;4999749;28;20056;-13
2022/10/29 04:22:52;;;;;;;8.98;5.60;;;20.50;73.70;;;;;;4993537;28;20069;-13
2022/10/29 04:25:17;;;;;;;10.38;6.13;;;20.50;73.70;;;;;;4989018;28;20100;-14
2022/10/29 04:27:43;;;;;;;11.95;5.97;;;20.50;74.00;;;;;;4995773;28;20034;-13
2022/10/29 04:30:09;;;;;;;14.50;7.10;;;20.60;74.00;;;;;;4991915;28;20038;-13
2022/10/29 04:32:34;;;;;;;13.32;6.97;;;20.50;74.40;;;;;;4992844;28;20422;-13
2022/10/29 04:35:00;;;;;;;14.38;8.05;;;20.50;74.10;;;;;;5009054;28;20045;-13
2022/10/29 04:37:28;;;;;;;10.35;6.43;;;20.50;75.00;;;;;;5012924;28;20518;-14
2022/10/29 04:39:53;;;;;;;12.10;7.20;;;20.50;74.00;;;;;;5009372;28;20046;-13
2022/10/29 04:42:19;;;;;;;12.82;6.65;;;20.50;74.30;;;;;;5013817;28;20092;-13
2022/10/29 04:44:44;;;;;;;14.70;8.20;;;20.50;74.00;;;;;;5005739;28;20049;-13
2022/10/29 04:47:10;;;;;;;13.13;7.35;;;20.50;74.10;;;;;;4991955;28;20084;-13
2022/10/29 04:49:35;;;;;;;15.07;7.65;;;20.50;74.30;;;;;;4992759;28;20084;-14
2022/10/29 04:52:01;;;;;;;14.38;7.63;;;20.50;74.80;;;;;;4995126;28;20042;-13
2022/10/29 04:54:27;;;;;;;14.32;7.97;;;20.50;74.10;;;;;;4994291;28;20045;-13
2022/10/29 04:56:52;;;;;;;17.40;8.55;;;20.50;74.10;;;;;;4991556;28;20037;-13
2022/10/29 04:59:18;;;;;;;15.48;7.93;;;20.50;74.10;;;;;;4991233;28;20450;-12
2022/10/29 05:01:43;;;;;;;13.20;8.30;;;20.50;73.90;;;;;;4994368;28;20042;-13
2022/10/29 05:04:09;;;;;;;15.52;8.32;;;20.50;74.10;;;;;;4993165;28;20295;-13
2022/10/29 05:06:34;;;;;;;14.82;7.88;;;20.50;74.70;;;;;;4993801;28;20104;-12
2022/10/29 05:09:00;;;;;;;14.93;7.90;;;20.50;74.10;;;;;;5014861;28;20559;-13
2022/10/29 05:11:26;;;;;;;12.40;7.45;;;20.50;73.90;;;;;;5009130;28;20050;-12
2022/10/29 05:13:51;;;;;;;13.55;7.10;;;20.50;73.90;;;;;;5007659;28;20046;-13
2022/10/29 05:16:17;;;;;;;11.20;7.57;;;20.50;74.00;;;;;;5005803;28;20046;-13
2022/10/29 05:18:42;;;;;;;15.20;8.45;;;20.50;74.00;;;;;;5005287;28;20688;-12
2022/10/29 05:21:08;;;;;;;18.42;9.27;;;20.50;74.10;;;;;;5004097;28;20042;-13
2022/10/29 05:23:33;;;;;;;15.05;8.70;;;20.50;74.80;;;;;;5010742;28;20073;-13
2022/10/29 05:25:59;;;;;;;16.35;8.82;;;20.50;74.10;;;;;;5008253;28;20052;-13
2022/10/29 05:28:25;;;;;;;15.93;8.27;;;20.50;73.90;;;;;;5012446;28;20132;-13
2022/10/29 05:30:51;;;;;;;19.70;9.90;;;20.50;74.90;;;;;;5008566;28;20045;-12
2022/10/29 05:33:21;;;;;;;18.63;9.45;;;20.50;74.10;;;;;;5012889;28;20073;-14
2022/10/29 05:35:47;;;;;;;13.93;8.10;;;20.50;73.90;;;;;;5007879;28;20100;-12
2022/10/29 05:38:14;;;;;;;18.23;9.43;;;20.50;74.00;;;;;;5011506;28;20498;-13
2022/10/29 05:40:41;;;;;;;20.98;9.40;;;20.50;74.10;;;;;;5010038;28;20514;-22
2022/10/29 05:43:07;;;;;;;14.32;7.68;;;20.50;74.30;;;;;;5001645;28;20092;-13
2022/10/29 05:45:32;;;;;;;17.95;9.15;;;20.50;73.80;;;;;;5008935;28;20041;-13
2022/10/29 05:47:59;;;;;;;18.58;9.40;;;20.50;73.90;;;;;;5014392;28;20505;-12
2022/10/29 05:50:25;;;;;;;20.50;10.05;;;20.50;73.60;;;;;;4987828;28;20452;-12
2022/10/29 05:52:57;;;;;;;22.17;11.07;;;20.50;73.70;;;;;;4990620;28;20041;-13
2022/10/29 05:55:23;;;;;;;19.25;10.45;;;20.50;73.60;;;;;;4993121;28;20576;-21
2022/10/29 05:57:49;;;;;;;15.55;8.18;;;20.50;73.90;;;;;;4992366;28;20077;-12
2022/10/29 06:00:14;;;;;;;14.80;7.25;;;20.50;73.80;;;;;;4992620;28;20121;-13
2022/10/29 06:02:43;;;;;;;14.38;8.18;;;20.50;73.80;;;;;;5000036;28;20045;-13
2022/10/29 06:05:08;;;;;;;16.05;8.35;;;20.50;74.00;;;;;;5013961;28;20779;-13
2022/10/29 06:07:34;;;;;;;12.93;7.43;;;20.50;73.90;;;;;;5008903;28;20034;-12
2022/10/29 06:10:00;;;;;;;13.00;7.40;;;20.50;73.90;;;;;;4994846;28;20046;-14
2022/10/29 06:12:25;;;;;;;13.88;7.45;;;20.50;73.90;;;;;;4994228;28;20045;-12
2022/10/29 06:14:51;;;;;;;12.65;7.10;;;20.50;73.80;;;;;;4994776;28;20483;-13
2022/10/29 06:17:16;;;;;;;12.30;6.90;;;20.50;74.00;;;;;;4996094;28;20101;-13
2022/10/29 06:19:42;;;;;;;11.75;6.40;;;20.40;74.00;;;;;;4997760;28;20057;-13
2022/10/29 06:22:07;;;;;;;9.00;5.90;;;20.50;74.00;;;;;;4992972;28;20046;-13
2022/10/29 06:24:33;;;;;;;9.13;5.57;;;20.50;73.80;;;;;;4995514;28;20049;-13
2022/10/29 06:26:58;;;;;;;8.63;5.75;;;20.50;74.00;;;;;;4991406;28;20667;-12
2022/10/29 06:29:24;;;;;;;8.52;5.50;;;20.50;74.10;;;;;;4993817;28;20445;-13
2022/10/29 06:31:49;;;;;;;6.88;4.82;;;20.40;73.90;;;;;;4997173;28;20053;-13
2022/10/29 06:34:15;;;;;;;6.75;4.65;;;20.40;73.80;;;;;;4994953;28;20089;-19
2022/10/29 06:36:41;;;;;;;5.47;4.18;;;20.50;74.00;;;;;;4992682;28;20057;-14
2022/10/29 06:39:06;;;;;;;5.10;4.13;;;20.40;73.90;;;;;;4994811;28;20398;-18
2022/10/29 06:41:32;;;;;;;5.85;4.28;;;20.40;74.60;;;;;;4994161;28;20074;-18
2022/10/29 06:43:57;;;;;;;4.68;4.28;;;20.40;74.00;;;;;;4996039;28;20542;-18
2022/10/29 06:46:23;;;;;;;4.15;3.75;;;20.40;74.00;;;;;;4993815;28;20050;-23
2022/10/29 06:48:48;;;;;;;3.58;3.15;;;20.40;73.60;;;;;;4995058;28;20043;-17
2022/10/29 06:51:14;;;;;;;4.30;3.10;;;20.40;73.80;;;;;;4996123;28;20039;-17
2022/10/29 06:53:40;;;;;;;3.03;2.78;;;20.40;74.00;;;;;;4990151;28;21258;-18
2022/10/29 06:56:05;;;;;;;3.45;2.28;;;20.40;73.80;;;;;;4991978;28;20092;-17
2022/10/29 06:58:31;;;;;;;3.25;2.90;;;20.40;73.80;;;;;;4992762;28;20059;-19
2022/10/29 07:00:59;;;;;;;2.50;2.30;;;20.40;73.80;;;;;;4993002;28;20614;-18
2022/10/29 07:03:24;;;;;;;2.85;2.45;;;20.50;73.60;;;;;;4992517;28;20531;-17
2022/10/29 07:05:57;;;;;;;2.60;2.22;;;20.50;73.40;;;;;;4994195;28;20072;-18
2022/10/29 07:08:23;;;;;;;2.10;1.90;;;20.50;73.60;;;;;;4996319;28;20041;-18
2022/10/29 07:10:52;;;;;;;1.98;1.75;;;20.50;73.50;;;;;;5005331;28;20041;-17
2022/10/29 07:13:18;;;;;;;1.83;1.60;;;20.50;73.30;;;;;;5011985;28;20049;-18
2022/10/29 07:15:43;;;;;;;2.53;2.13;;;20.50;73.60;;;;;;5001235;28;20100;-18
2022/10/29 07:18:09;;;;;;;2.30;2.10;;;20.50;73.40;;;;;;4659302;28;10000601;-17
2022/10/29 07:20:37;;;;;;;3.45;2.58;;;20.50;73.40;;;;;;5008806;28;20129;-18
2022/10/29 07:23:02;;;;;;;1.50;1.40;;;20.50;73.40;;;;;;5008954;28;20042;-18
2022/10/29 07:25:28;;;;;;;2.25;1.70;;;20.50;73.60;;;;;;5004227;28;20366;-21
2022/10/29 07:27:54;;;;;;;1.60;1.50;;;20.50;73.80;;;;;;5007554;28;20100;-18
2022/10/29 07:30:20;;;;;;;2.17;1.65;;;20.60;73.20;;;;;;5007437;28;20050;-17
2022/10/29 07:32:45;;;;;;;1.85;1.10;;;20.60;73.00;;;;;;5002389;28;20054;-18
2022/10/29 07:35:11;;;;;;;1.88;1.70;;;20.70;73.00;;;;;;5006087;28;20514;-18
2022/10/29 07:37:36;;;;;;;1.88;1.40;;;20.60;73.20;;;;;;5000957;28;20054;-17
2022/10/29 07:40:03;;;;;;;1.95;1.50;;;20.60;73.40;;;;;;4996142;28;20448;-18
2022/10/29 07:42:28;;;;;;;1.70;1.25;;;20.50;73.50;;;;;;4982201;28;20398;-17
2022/10/29 07:44:54;;;;;;;2.00;1.60;;;20.50;73.50;;;;;;4983737;28;20057;-18
2022/10/29 07:47:19;;;;;;;2.58;1.70;;;20.50;73.50;;;;;;4990405;28;20081;-18
2022/10/29 07:49:45;;;;;;;3.65;1.40;;;20.50;73.70;;;;;;5003764;28;20366;-18
2022/10/29 07:52:10;;;;;;;1.73;1.60;;;20.50;73.50;;;;;;5005433;28;20061;-27
2022/10/29 07:54:36;;;;;;;2.75;1.70;;;20.60;73.10;;;;;;5008202;28;20041;-27
2022/10/29 07:57:02;;;;;;;1.67;1.58;;;20.60;73.20;;;;;;4998214;28;20037;-18
2022/10/29 07:59:27;;;;;;;1.27;1.17;;;20.60;73.40;;;;;;4991047;28;20060;-21
2022/10/29 08:01:53;;;;;;;2.15;1.38;;;20.60;72.80;;;;;;4991395;28;20049;-18
2022/10/29 08:04:18;;;;;;;1.42;1.25;;;20.60;72.70;;;;;;5009979;28;20454;-18
2022/10/29 08:06:44;;;;;;;2.15;1.25;;;20.50;73.20;;;;;;5008479;28;20080;-19
2022/10/29 08:09:11;;;;;;;2.42;1.40;;;20.60;72.80;;;;;;5007132;28;20048;-18
2022/10/29 08:11:36;;;;;;;1.90;1.48;;;20.50;73.60;;;;;;5010333;28;20124;-18
2022/10/29 08:14:02;;;;;;;2.58;1.30;;;20.60;72.90;;;;;;5003196;28;20150;-18
2022/10/29 08:16:27;;;;;;;1.60;1.50;;;20.60;72.70;;;;;;5001028;28;20137;-18
2022/10/29 08:18:53;;;;;;;1.48;1.20;;;20.60;72.80;;;;;;5007084;28;20468;-18
2022/10/29 08:21:18;;;;;;;1.38;1.27;;;20.60;73.20;;;;;;5007387;28;20083;-18
2022/10/29 08:23:44;;;;;;;2.22;1.70;;;20.60;73.00;;;;;;5007021;28;20042;-18
2022/10/29 08:26:10;;;;;;;1.90;1.70;;;20.60;73.10;;;;;;5004576;28;20058;-17
2022/10/29 08:28:36;;;;;;;2.58;1.98;;;20.60;72.70;;;;;;5008060;28;20076;-18
2022/10/29 08:31:01;;;;;;;2.83;2.10;;;20.70;72.90;;;;;;5007962;28;20490;-17
2022/10/29 08:33:27;;;;;;;2.63;1.90;;;20.70;73.40;;;;;;5003653;28;20097;-16
2022/10/29 08:35:53;;;;;;;2.72;1.55;;;20.70;73.00;;;;;;5007830;28;20624;-18
2022/10/29 08:38:22;;;;;;;2.38;2.10;;;20.70;72.70;;;;;;5011479;28;20502;-18
2022/10/29 08:41:25;;;;;;;2.15;2.05;;;20.80;72.90;;;;;;5006833;28;20164;-18
2022/10/29 08:44:13;;;;;;;2.88;2.13;;;20.80;72.70;;;;;;5001995;28;20046;-19
2022/10/29 08:46:55;;;;;;;2.17;1.92;;;20.70;72.70;;;;;;5008923;28;20046;-18
2022/10/29 08:49:40;;;;;;;2.45;2.13;;;20.80;72.90;;;;;;5021344;28;20053;-18
2022/10/29 08:52:19;;;;;;;2.22;2.13;;;20.80;72.80;;;;;;4988219;28;20518;-18
2022/10/29 08:54:47;;;;;;;2.80;2.00;;;20.80;73.60;;;;;;4983146;28;20184;-18
2022/10/29 08:57:16;;;;;;;2.67;2.25;;;20.80;72.80;;;;;;4988773;28;20061;-18
2022/10/29 09:00:04;;;;;;;2.83;2.60;;;20.80;72.90;;;;;;4978815;28;20100;-18
2022/10/29 09:02:30;;;;;;;3.33;2.33;;;20.80;73.00;;;;;;5001072;28;20402;-17
2022/10/29 09:04:55;;;;;;;4.53;2.20;;;20.80;72.90;;;;;;4981411;28;20037;-18
2022/10/29 09:07:25;;;;;;;2.83;2.45;;;20.80;73.10;;;;;;4983352;28;20407;-17
2022/10/29 09:10:40;;;;;;;2.80;2.60;;;20.80;72.90;;;;;;4991772;28;20062;-18
2022/10/29 09:13:29;;;;;;;4.57;2.45;;;20.80;73.10;;;;;;4989303;28;20045;-18
2022/10/29 09:16:06;;;;;;;3.25;2.95;;;20.80;72.90;;;;;;5002290;28;20089;-18
2022/10/29 09:19:02;;;;;;;3.33;2.63;;;20.80;73.20;;;;;;5018535;28;20529;-18
2022/10/29 09:21:36;;;;;;;3.83;2.78;;;20.80;73.20;;;;;;5017232;28;21944;-17
2022/10/29 09:24:26;;;;;;;3.50;2.55;;;20.80;73.30;;;;;;5002234;28;20093;-19
2022/10/29 09:26:58;;;;;;;2.85;2.65;;;20.80;73.30;;;;;;5002178;28;20068;-18
2022/10/29 09:30:16;;;;;;;2.78;2.58;;;20.80;73.20;;;;;;5004513;28;20045;-22
2022/10/29 09:33:02;;;;;;;4.38;2.53;;;20.80;73.40;;;;;;4978606;28;20053;-18
2022/10/29 09:35:45;;;;;;;3.25;2.83;;;20.80;73.30;;;;;;4993671;28;20536;-18
2022/10/29 09:38:43;;;;;;;2.75;2.55;;;20.80;73.40;;;;;;4988740;28;20406;-18
2022/10/29 09:41:09;;;;;;;3.10;2.72;;;20.80;73.40;;;;;;5010171;28;20078;-17
2022/10/29 09:43:42;;;;;;;3.70;2.95;;;20.80;73.40;;;;;;5022929;28;20135;-18
2022/10/29 09:46:26;;;;;;;2.53;2.33;;;20.80;73.30;;;;;;5006988;28;20091;-18
2022/10/29 09:48:51;;;;;;;3.03;2.77;;;20.90;73.30;;;;;;5005202;28;20343;-18
2022/10/29 09:51:26;;;;;;;2.88;2.67;;;20.80;73.30;;;;;;5017823;28;21083;-17
2022/10/29 09:53:51;;;;;;;4.18;3.10;;;20.80;73.30;;;;;;5007811;28;20053;-18
2022/10/29 09:56:17;;;;;;;3.65;2.80;;;20.80;73.30;;;;;;5004870;28;20545;-18
2022/10/29 09:58:43;;;;;;;3.83;3.03;;;20.80;73.20;;;;;;5012348;28;20049;-18
2022/10/29 10:01:09;;;;;;;4.78;3.17;;;20.90;73.10;;;;;;5015225;28;20119;-17
2022/10/29 10:03:44;;;;;;;5.25;2.30;;;20.90;73.20;;;;;;5007785;28;20578;-18
2022/10/29 10:06:11;;;;;;;2.67;2.47;;;20.80;73.00;;;;;;4999979;28;20141;-19
2022/10/29 10:08:59;;;;;;;5.05;3.30;;;20.90;73.40;;;;;;4991516;28;20065;-18
2022/10/29 10:11:26;;;;;;;2.90;2.70;;;20.90;73.50;;;;;;4990643;28;20046;-18
2022/10/29 10:13:55;;;;;;;3.50;3.03;;;20.90;73.20;;;;;;4989134;28;20093;-17
2022/10/29 10:16:25;;;;;;;4.45;2.67;;;20.90;73.30;;;;;;4984420;28;20046;-18
2022/10/29 10:18:51;;;;;;;4.18;2.60;;;20.90;73.00;;;;;;5019146;28;20053;-18
2022/10/29 10:21:27;;;;;;;3.65;3.20;;;20.90;73.00;;;;;;5038862;28;20103;-18
2022/10/29 10:23:54;;;;;;;3.58;2.97;;;20.90;72.90;;;;;;4997865;28;20073;-18
2022/10/29 10:26:31;;;;;;;2.80;2.60;;;20.90;72.90;;;;;;5010161;28;20113;-18
2022/10/29 10:29:23;;;;;;;3.25;3.00;;;20.90;73.80;;;;;;5011144;28;20053;-28
2022/10/29 10:31:55;;;;;;;2.78;2.67;;;20.90;73.00;;;;;;5014222;28;20091;-18
2022/10/29 10:34:22;;;;;;;3.70;3.17;;;20.90;72.80;;;;;;5009824;28;20129;-18
2022/10/29 10:36:49;;;;;;;3.03;2.83;;;21.00;73.00;;;;;;5015494;28;20066;-20
2022/10/29 10:39:19;;;;;;;5.68;3.08;;;20.90;73.00;;;;;;5012812;28;20514;-18
2022/10/29 10:41:45;;;;;;;3.00;2.80;;;20.90;73.00;;;;;;5007123;28;20441;-18
2022/10/29 10:44:11;;;;;;;4.28;2.88;;;20.90;73.00;;;;;;5021592;28;20037;-18
2022/10/29 10:46:38;;;;;;;2.95;2.65;;;20.90;72.90;;;;;;5011374;28;20068;-18
2022/10/29 10:49:04;;;;;;;3.95;2.58;;;20.90;72.90;;;;;;5015211;28;20502;-18
2022/10/29 10:51:35;;;;;;;3.00;2.78;;;21.00;72.90;;;;;;5004792;28;20046;-18
2022/10/29 10:54:02;;;;;;;3.42;3.10;;;21.00;72.80;;;;;;4993053;28;20153;-19
2022/10/29 10:56:28;;;;;;;2.58;2.35;;;21.00;72.80;;;;;;4994895;28;20034;-21
2022/10/29 10:59:01;;;;;;;2.63;2.40;;;21.00;72.90;;;;;;4994472;28;20044;-24
2022/10/29 11:01:41;;;;;;;3.17;2.73;;;21.00;72.70;;;;;;4997618;28;20053;-18
2022/10/29 11:04:22;;;;;;;2.70;2.50;;;21.00;72.60;;;;;;5011072;28;20281;-19
2022/10/29 11:06:48;;;;;;;5.45;2.90;;;21.00;72.70;;;;;;4996179;28;20045;-19
2022/10/29 11:09:28;;;;;;;3.38;2.53;;;21.00;72.50;;;;;;5006402;28;20054;-19
2022/10/29 11:12:13;;;;;;;3.10;2.70;;;21.10;72.50;;;;;;5025918;28;20034;-18
2022/10/29 11:14:41;;;;;;;;;;;21.00;72.50;;;;;;5013901;28;20164;-19
2022/10/29 11:17:13;;;;;;;2.58;2.03;;;21.00;72.40;;;;;;5010979;28;19921;-18
2022/10/29 11:19:44;;;;;;;3.55;2.42;;;21.10;72.20;;;;;;5014094;28;20050;-17
2022/10/29 11:22:20;;;;;;;2.58;2.45;;;21.10;72.10;;;;;;5012470;28;20052;-18
2022/10/29 11:24:52;;;;;;;2.55;2.45;;;21.30;71.90;;;;;;5008054;28;20041;-18
2022/10/29 11:27:29;;;;;;;2.80;2.58;;;21.40;70.90;;;;;;5010421;28;20050;-19
2022/10/29 11:30:17;;;;;;;3.60;2.42;;;21.30;71.40;;;;;;4999193;28;20778;-19
2022/10/29 11:33:15;;;;;;;2.50;2.30;;;21.30;71.20;;;;;;4995879;28;20050;-18
2022/10/29 11:35:45;;;;;;;2.50;2.30;;;21.40;71.20;;;;;;4993998;28;20121;-19
2022/10/29 11:38:14;;;;;;;2.22;2.05;;;21.20;71.50;;;;;;4992954;28;20065;-18
2022/10/29 11:41:12;;;;;;;3.28;2.05;;;21.20;71.70;;;;;;4996191;28;20038;-17
2022/10/29 11:43:37;;;;;;;2.83;2.50;;;21.10;72.00;;;;;;4991061;28;20053;-16
2022/10/29 11:46:36;;;;;;;2.90;2.70;;;21.10;72.90;;;;;;4991154;28;20050;-18
2022/10/29 11:49:31;;;;;;;2.47;2.28;;;21.10;72.10;;;;;;4992299;28;20515;-18
2022/10/29 11:52:09;;;;;;;2.67;2.17;;;21.10;72.20;;;;;;4990704;28;20057;-20
2022/10/29 11:54:44;;;;;;;3.50;2.40;;;21.10;72.20;;;;;;4975845;28;20450;-18
2022/10/29 11:57:37;;;;;;;2.22;2.03;;;21.10;71.90;;;;;;4992487;28;20077;-20
2022/10/29 12:00:15;;;;;;;2.83;2.30;;;21.10;71.90;;;;;;4962508;28;20478;-18
2022/10/29 12:02:46;;;;;;;3.65;2.10;;;21.10;72.00;;;;;;4993248;28;20041;-19
2022/10/29 12:05:21;;;;;;;2.67;2.28;;;21.10;71.90;;;;;;4992517;28;20388;-19
2022/10/29 12:08:09;;;;;;;2.30;1.80;;;21.10;72.10;;;;;;4993308;28;20645;-19
2022/10/29 12:10:50;;;;;;;2.20;1.92;;;21.10;72.10;;;;;;4998392;28;20041;-18
2022/10/29 12:13:23;;;;;;;1.90;1.80;;;21.10;72.00;;;;;;5006527;28;20049;-18
2022/10/29 12:15:49;;;;;;;1.92;1.83;;;21.10;72.20;;;;;;5004315;28;20049;-19
2022/10/29 12:18:25;;;;;;;2.28;2.17;;;21.10;72.30;;;;;;5009819;28;20045;-18
2022/10/29 12:21:06;;;;;;;1.80;1.70;;;21.00;72.10;;;;;;5021421;28;20104;-18
2022/10/29 12:23:38;;;;;;;2.30;2.10;;;21.00;72.10;;;;;;5001120;28;20042;-18
2022/10/29 12:26:11;;;;;;;2.20;2.05;;;21.00;72.00;;;;;;5006012;28;20490;-19
2022/10/29 12:29:00;;;;;;;1.85;1.75;;;21.00;72.10;;;;;;5021562;28;20375;-18
2022/10/29 12:31:28;;;;;;;1.77;1.65;;;21.00;72.00;;;;;;5023965;28;20033;-18
2022/10/29 12:34:15;;;;;;;1.80;1.70;;;21.10;72.00;;;;;;5026877;28;20045;-23
2022/10/29 12:36:56;;;;;;;2.78;2.03;;;21.00;71.90;;;;;;5006270;28;20042;-17
2022/10/29 12:39:28;;;;;;;2.45;1.77;;;21.00;72.00;;;;;;5022810;28;20052;-18
2022/10/29 12:41:56;;;;;;;2.05;1.95;;;21.00;72.10;;;;;;5011237;28;20112;-18
2022/10/29 12:44:29;;;;;;;3.00;2.08;;;21.00;71.90;;;;;;5010374;28;20073;-18
2022/10/29 12:47:10;;;;;;;2.13;1.42;;;21.00;71.90;;;;;;4992050;28;20042;-19
2022/10/29 12:50:13;;;;;;;1.70;1.60;;;21.00;72.00;;;;;;4990963;28;20565;-18
2022/10/29 12:52:41;;;;;;;1.90;1.80;;;21.00;72.00;;;;;;4992278;28;20046;-19
2022/10/29 12:55:09;;;;;;;2.10;1.92;;;21.00;72.00;;;;;;4993220;28;20050;-19
2022/10/29 12:57:35;;;;;;;1.70;1.60;;;21.00;71.90;;;;;;4990730;28;20050;-18
2022/10/29 13:00:22;;;;;;;2.00;1.90;;;21.00;71.90;;;;;;4995247;28;20422;-18
2022/10/29 13:02:50;;;;;;;1.60;1.50;;;21.00;72.00;;;;;;4991845;28;20129;-19